sensor_id;sensor_type;location;lat;lon;timestamp;pressure;altitude;pressure_sealevel;temperature;humidity
28628;BME280;15815;46.760;19.604;2022-11-06T00:00:19;100237.78;;;11.66;100.00
28628;BME280;15815;46.760;19.604;2022-11-06T00:02:45;100235.78;;;11.63;100.00
28628;BME280;15815;46.760;19.604;2022-11-06T00:05:10;100230.16;;;11.63;100.00
28628;BME280;15815;46.760;19.604;2022-11-06T00:07:54;100237.38;;;11.67;100.00
28628;BME280;15815;46.760;19.604;2022-11-06T00:10:20;100242.22;;;11.63;100.00
28628;BME280;15815;46.760;19.604;2022-11-06T00:12:46;100240.22;;;11.64;100.00
28628;BME280;15815;46.760;19.604;2022-11-06T00:15:12;100235.03;;;11.59;100.00
28628;BME280;15815;46.760;19.604;2022-11-06T00:17:38;100238.22;;;11.61;100.00
28628;BME280;15815;46.760;19.604;2022-11-06T00:20:05;100242.69;;;11.55;100.00
28628;BME280;15815;46.760;19.604;2022-11-06T00:22:32;100234.28;;;11.48;100.00
28628;BME280;15815;46.760;19.604;2022-11-06T00:24:58;100241.13;;;11.46;100.00
28628;BME280;15815;46.760;19.604;2022-11-06T00:27:23;100238.69;;;11.49;100.00
28628;BME280;15815;46.760;19.604;2022-11-06T00:29:48;100237.53;;;11.42;100.00
28628;BME280;15815;46.760;19.604;2022-11-06T00:32:14;100251.56;;;11.50;100.00
28628;BME280;15815;46.760;19.604;2022-11-06T00:34:39;100238.75;;;11.41;100.00
28628;BME280;15815;46.760;19.604;2022-11-06T00:37:04;100238.75;;;11.41;100.00
28628;BME280;15815;46.760;19.604;2022-11-06T00:39:29;100246.81;;;11.39;100.00
28628;BME280;15815;46.760;19.604;2022-11-06T00:41:55;100250.75;;;11.49;100.00
28628;BME280;15815;46.760;19.604;2022-11-06T00:44:20;100258.00;;;11.46;100.00
28628;BME280;15815;46.760;19.604;2022-11-06T00:46:45;100254.41;;;11.46;100.00
28628;BME280;15815;46.760;19.604;2022-11-06T00:49:11;100258.88;;;11.40;100.00
28628;BME280;15815;46.760;19.604;2022-11-06T00:51:36;100259.25;;;11.42;100.00
28628;BME280;15815;46.760;19.604;2022-11-06T00:54:07;100265.25;;;11.48;100.00
28628;BME280;15815;46.760;19.604;2022-11-06T00:56:33;100263.63;;;11.46;100.00
28628;BME280;15815;46.760;19.604;2022-11-06T00:59:01;100264.44;;;11.51;100.00
28628;BME280;15815;46.760;19.604;2022-11-06T01:01:32;100252.81;;;11.41;100.00
28628;BME280;15815;46.760;19.604;2022-11-06T01:04:00;100265.66;;;11.46;100.00
28628;BME280;15815;46.760;19.604;2022-11-06T01:06:29;100255.63;;;11.45;100.00
28628;BME280;15815;46.760;19.604;2022-11-06T01:08:55;100257.59;;;11.52;100.00
28628;BME280;15815;46.760;19.604;2022-11-06T01:11:24;100261.22;;;11.52;100.00
28628;BME280;15815;46.760;19.604;2022-11-06T01:13:51;100240.00;;;11.37;100.00
28628;BME280;15815;46.760;19.604;2022-11-06T01:16:18;100254.03;;;11.40;100.00
28628;BME280;15815;46.760;19.604;2022-11-06T01:18:44;100265.25;;;11.48;100.00
28628;BME280;15815;46.760;19.604;2022-11-06T01:21:13;100273.75;;;11.40;100.00
28628;BME280;15815;46.760;19.604;2022-11-06T01:23:39;100265.31;;;11.40;100.00
28628;BME280;15815;46.760;19.604;2022-11-06T01:26:07;100269.31;;;11.39;100.00
28628;BME280;15815;46.760;19.604;2022-11-06T01:28:33;100241.31;;;11.14;100.00
28628;BME280;15815;46.760;19.604;2022-11-06T01:31:15;100276.16;;;11.38;100.00
28628;BME280;15815;46.760;19.604;2022-11-06T01:33:41;100266.09;;;11.41;100.00
28628;BME280;15815;46.760;19.604;2022-11-06T01:36:11;100271.69;;;11.44;100.00
28628;BME280;15815;46.760;19.604;2022-11-06T01:38:45;100280.97;;;11.41;100.00
28628;BME280;15815;46.760;19.604;2022-11-06T01:41:13;100269.28;;;11.46;100.00
28628;BME280;15815;46.760;19.604;2022-11-06T01:46:10;100276.56;;;11.40;100.00
28628;BME280;15815;46.760;19.604;2022-11-06T01:48:36;100281.34;;;11.43;100.00
28628;BME280;15815;46.760;19.604;2022-11-06T01:51:04;100278.59;;;11.36;100.00
28628;BME280;15815;46.760;19.604;2022-11-06T01:53:30;100261.31;;;11.34;100.00
28628;BME280;15815;46.760;19.604;2022-11-06T01:55:58;100275.31;;;11.45;100.00
28628;BME280;15815;46.760;19.604;2022-11-06T01:58:27;100250.50;;;11.29;100.00
28628;BME280;15815;46.760;19.604;2022-11-06T02:00:54;100266.06;;;11.44;100.00
28628;BME280;15815;46.760;19.604;2022-11-06T02:03:20;100258.06;;;11.39;100.00
28628;BME280;15815;46.760;19.604;2022-11-06T02:05:46;100265.31;;;11.40;100.00
28628;BME280;15815;46.760;19.604;2022-11-06T02:08:16;100247.66;;;11.33;100.00
28628;BME280;15815;46.760;19.604;2022-11-06T02:10:42;100268.53;;;11.35;100.00
28628;BME280;15815;46.760;19.604;2022-11-06T02:13:26;100262.94;;;11.32;100.00
28628;BME280;15815;46.760;19.604;2022-11-06T02:18:48;100269.78;;;11.31;100.00
28628;BME280;15815;46.760;19.604;2022-11-06T02:21:58;100265.41;;;11.26;100.00
28628;BME280;15815;46.760;19.604;2022-11-06T02:27:32;100256.97;;;11.19;100.00
28628;BME280;15815;46.760;19.604;2022-11-06T02:30:10;100276.66;;;11.26;100.00
28628;BME280;15815;46.760;19.604;2022-11-06T02:32:57;100271.81;;;11.30;100.00
28628;BME280;15815;46.760;19.604;2022-11-06T02:35:50;100277.84;;;11.29;100.00
28628;BME280;15815;46.760;19.604;2022-11-06T02:38:21;100273.44;;;11.28;100.00
28628;BME280;15815;46.760;19.604;2022-11-06T02:40:53;100279.06;;;11.28;100.00
28628;BME280;15815;46.760;19.604;2022-11-06T02:43:24;100282.66;;;11.28;100.00
28628;BME280;15815;46.760;19.604;2022-11-06T02:46:05;100276.66;;;11.26;100.00
28628;BME280;15815;46.760;19.604;2022-11-06T02:48:58;100278.25;;;11.27;100.00
28628;BME280;15815;46.760;19.604;2022-11-06T02:51:27;100266.22;;;11.16;100.00
28628;BME280;15815;46.760;19.604;2022-11-06T02:53:58;100286.31;;;11.25;100.00
28628;BME280;15815;46.760;19.604;2022-11-06T02:56:28;100298.75;;;11.21;100.00
28628;BME280;15815;46.760;19.604;2022-11-06T02:59:18;100304.00;;;11.19;100.00
28628;BME280;15815;46.760;19.604;2022-11-06T03:01:53;100310.81;;;11.21;100.00
28628;BME280;15815;46.760;19.604;2022-11-06T03:04:24;100308.00;;;11.21;100.00
28628;BME280;15815;46.760;19.604;2022-11-06T03:07:06;100299.19;;;11.15;100.00
28628;BME280;15815;46.760;19.604;2022-11-06T03:09:34;100307.66;;;11.12;100.00
28628;BME280;15815;46.760;19.604;2022-11-06T03:12:06;100312.03;;;11.24;100.00
28628;BME280;15815;46.760;19.604;2022-11-06T03:14:39;100315.22;;;11.22;100.00
28628;BME280;15815;46.760;19.604;2022-11-06T03:17:30;100325.69;;;11.29;100.00
28628;BME280;15815;46.760;19.604;2022-11-06T03:20:16;100317.22;;;11.32;100.00
28628;BME280;15815;46.760;19.604;2022-11-06T03:25:50;100330.09;;;11.26;100.00
28628;BME280;15815;46.760;19.604;2022-11-06T03:28:32;100342.94;;;11.31;100.00
28628;BME280;15815;46.760;19.604;2022-11-06T03:31:07;100331.28;;;11.32;100.00
28628;BME280;15815;46.760;19.604;2022-11-06T03:34:06;100340.16;;;11.27;100.00
28628;BME280;15815;46.760;19.604;2022-11-06T03:36:39;100347.78;;;11.27;100.00
28628;BME280;15815;46.760;19.604;2022-11-06T03:39:13;100347.34;;;11.35;100.00
28628;BME280;15815;46.760;19.604;2022-11-06T03:41:49;100346.53;;;11.38;100.00
28628;BME280;15815;46.760;19.604;2022-11-06T03:44:18;100338.50;;;11.33;100.00
28628;BME280;15815;46.760;19.604;2022-11-06T03:46:49;100329.69;;;11.28;100.00
28628;BME280;15815;46.760;19.604;2022-11-06T03:49:21;100336.56;;;11.23;100.00
28628;BME280;15815;46.760;19.604;2022-11-06T03:51:53;100308.91;;;11.00;100.00
28628;BME280;15815;46.760;19.604;2022-11-06T03:54:47;100355.03;;;11.24;100.00
28628;BME280;15815;46.760;19.604;2022-11-06T03:57:20;100359.44;;;11.29;100.00
28628;BME280;15815;46.760;19.604;2022-11-06T03:59:50;100363.44;;;11.35;100.00
28628;BME280;15815;46.760;19.604;2022-11-06T04:02:18;100372.28;;;11.33;100.00
28628;BME280;15815;46.760;19.604;2022-11-06T04:04:54;100370.66;;;11.36;100.00
28628;BME280;15815;46.760;19.604;2022-11-06T04:07:24;100376.31;;;11.32;100.00
28628;BME280;15815;46.760;19.604;2022-11-06T04:09:58;100365.06;;;11.29;100.00
28628;BME280;15815;46.760;19.604;2022-11-06T04:12:43;100371.88;;;11.31;100.00
28628;BME280;15815;46.760;19.604;2022-11-06T04:15:37;100377.50;;;11.31;100.00
28628;BME280;15815;46.760;19.604;2022-11-06T04:18:12;100364.69;;;11.27;100.00
28628;BME280;15815;46.760;19.604;2022-11-06T04:20:46;100375.09;;;11.33;100.00
28628;BME280;15815;46.760;19.604;2022-11-06T04:23:46;100371.47;;;11.33;100.00
28628;BME280;15815;46.760;19.604;2022-11-06T04:26:41;100367.50;;;11.23;100.00
28628;BME280;15815;46.760;19.604;2022-11-06T04:29:40;100356.25;;;11.16;100.00
28628;BME280;15815;46.760;19.604;2022-11-06T04:32:11;100366.28;;;11.24;100.00
28628;BME280;15815;46.760;19.604;2022-11-06T04:34:45;100349.88;;;11.08;100.00
28628;BME280;15815;46.760;19.604;2022-11-06T04:37:55;100363.47;;;11.17;100.00
28628;BME280;15815;46.760;19.604;2022-11-06T04:42:48;100373.13;;;11.16;100.00
28628;BME280;15815;46.760;19.604;2022-11-06T04:45:23;100380.81;;;11.05;100.00
28628;BME280;15815;46.760;19.604;2022-11-06T04:47:51;100377.59;;;11.10;100.00
28628;BME280;15815;46.760;19.604;2022-11-06T04:50:18;100382.78;;;11.15;100.00
28628;BME280;15815;46.760;19.604;2022-11-06T04:52:46;100388.41;;;11.15;100.00
28628;BME280;15815;46.760;19.604;2022-11-06T04:55:12;100379.56;;;11.17;100.00
28628;BME280;15815;46.760;19.604;2022-11-06T04:57:37;100377.97;;;11.15;100.00
28628;BME280;15815;46.760;19.604;2022-11-06T05:00:03;100386.81;;;11.14;100.00
28628;BME280;15815;46.760;19.604;2022-11-06T05:02:32;100386.00;;;11.17;100.00
28628;BME280;15815;46.760;19.604;2022-11-06T05:04:57;100387.59;;;11.14;100.00
28628;BME280;15815;46.760;19.604;2022-11-06T05:07:23;100380.41;;;11.10;100.00
28628;BME280;15815;46.760;19.604;2022-11-06T05:09:49;100383.59;;;11.12;100.00
28628;BME280;15815;46.760;19.604;2022-11-06T05:12:17;100400.09;;;11.10;100.00
28628;BME280;15815;46.760;19.604;2022-11-06T05:14:42;100402.88;;;11.13;100.00
28628;BME280;15815;46.760;19.604;2022-11-06T05:17:08;100392.84;;;11.09;100.00
28628;BME280;15815;46.760;19.604;2022-11-06T05:19:33;100398.88;;;11.11;100.00
28628;BME280;15815;46.760;19.604;2022-11-06T05:21:58;100408.47;;;11.21;100.00
28628;BME280;15815;46.760;19.604;2022-11-06T05:24:42;100400.88;;;11.14;100.00
28628;BME280;15815;46.760;19.604;2022-11-06T05:27:07;100401.25;;;11.16;100.00
28628;BME280;15815;46.760;19.604;2022-11-06T05:29:33;100402.91;;;11.10;100.00
28628;BME280;15815;46.760;19.604;2022-11-06T05:31:58;100393.25;;;11.07;100.00
28628;BME280;15815;46.760;19.604;2022-11-06T05:34:23;100403.28;;;11.12;100.00
28628;BME280;15815;46.760;19.604;2022-11-06T05:36:49;100404.09;;;11.09;100.00
28628;BME280;15815;46.760;19.604;2022-11-06T05:39:14;100403.31;;;11.05;100.00
28628;BME280;15815;46.760;19.604;2022-11-06T05:41:39;100399.72;;;10.94;100.00
28628;BME280;15815;46.760;19.604;2022-11-06T05:44:05;100408.16;;;11.01;100.00
28628;BME280;15815;46.760;19.604;2022-11-06T05:46:30;100414.56;;;11.05;100.00
28628;BME280;15815;46.760;19.604;2022-11-06T05:48:56;100416.94;;;11.17;100.00
28628;BME280;15815;46.760;19.604;2022-11-06T05:51:21;100427.00;;;11.14;100.00
28628;BME280;15815;46.760;19.604;2022-11-06T05:53:47;100418.97;;;11.06;100.00
28628;BME280;15815;46.760;19.604;2022-11-06T05:56:15;100420.19;;;11.05;100.00
28628;BME280;15815;46.760;19.604;2022-11-06T05:58:40;100438.66;;;11.17;100.00
28628;BME280;15815;46.760;19.604;2022-11-06T06:01:05;100439.47;;;11.13;100.00
28628;BME280;15815;46.760;19.604;2022-11-06T06:03:31;100431.84;;;11.07;100.00
28628;BME280;15815;46.760;19.604;2022-11-06T06:05:56;100448.72;;;11.10;100.00
28628;BME280;15815;46.760;19.604;2022-11-06T06:08:21;100449.88;;;11.20;100.00
28628;BME280;15815;46.760;19.604;2022-11-06T06:10:47;100451.91;;;11.23;100.00
28628;BME280;15815;46.760;19.604;2022-11-06T06:13:13;100459.94;;;11.21;100.00
28628;BME280;15815;46.760;19.604;2022-11-06T06:15:40;100466.38;;;11.25;100.00
28628;BME280;15815;46.760;19.604;2022-11-06T06:18:06;100461.16;;;11.13;100.00
28628;BME280;15815;46.760;19.604;2022-11-06T06:20:32;100471.19;;;11.18;100.00
28628;BME280;15815;46.760;19.604;2022-11-06T06:22:58;100477.63;;;11.25;100.00
28628;BME280;15815;46.760;19.604;2022-11-06T06:25:25;100484.06;;;11.26;100.00
28628;BME280;15815;46.760;19.604;2022-11-06T06:27:51;100482.03;;;11.19;100.00
28628;BME280;15815;46.760;19.604;2022-11-06T06:30:16;100497.31;;;11.29;100.00
28628;BME280;15815;46.760;19.604;2022-11-06T06:32:42;100496.50;;;11.21;100.00
28628;BME280;15815;46.760;19.604;2022-11-06T06:35:08;100484.84;;;11.33;100.00
28628;BME280;15815;46.760;19.604;2022-11-06T06:37:34;100487.22;;;11.38;100.00
28628;BME280;15815;46.760;19.604;2022-11-06T06:40:00;100500.09;;;11.39;100.00
28628;BME280;15815;46.760;19.604;2022-11-06T06:42:29;100505.31;;;11.52;100.00
28628;BME280;15815;46.760;19.604;2022-11-06T06:44:55;100497.66;;;11.56;100.00
28628;BME280;15815;46.760;19.604;2022-11-06T06:47:20;100511.31;;;11.57;100.00
28628;BME280;15815;46.760;19.604;2022-11-06T06:49:45;100497.25;;;11.46;100.00
28628;BME280;15815;46.760;19.604;2022-11-06T06:52:11;100524.97;;;11.66;100.00
28628;BME280;15815;46.760;19.604;2022-11-06T06:54:37;100520.94;;;11.63;100.00
28628;BME280;15815;46.760;19.604;2022-11-06T06:57:03;100519.31;;;11.66;100.00
28628;BME280;15815;46.760;19.604;2022-11-06T06:59:29;100530.94;;;11.75;100.00
28628;BME280;15815;46.760;19.604;2022-11-06T07:01:54;100539.78;;;11.77;100.00
28628;BME280;15815;46.760;19.604;2022-11-06T07:04:20;100537.44;;;11.79;100.00
28628;BME280;15815;46.760;19.604;2022-11-06T07:06:46;100546.25;;;11.88;100.00
28628;BME280;15815;46.760;19.604;2022-11-06T07:09:11;100533.34;;;11.76;100.00
28628;BME280;15815;46.760;19.604;2022-11-06T07:11:37;100544.25;;;11.82;100.00
28628;BME280;15815;46.760;19.604;2022-11-06T07:14:02;100533.78;;;11.86;100.00
28628;BME280;15815;46.760;19.604;2022-11-06T07:16:27;100544.63;;;11.87;100.00
28628;BME280;15815;46.760;19.604;2022-11-06T07:18:54;100538.56;;;11.92;100.00
28628;BME280;15815;46.760;19.604;2022-11-06T07:21:19;100538.56;;;11.92;100.00
28628;BME280;15815;46.760;19.604;2022-11-06T07:23:44;100534.97;;;11.88;100.00
28628;BME280;15815;46.760;19.604;2022-11-06T07:26:10;100526.47;;;11.95;100.00
28628;BME280;15815;46.760;19.604;2022-11-06T07:28:35;100530.09;;;11.99;100.00
28628;BME280;15815;46.760;19.604;2022-11-06T07:31:02;100541.34;;;12.03;100.00
28628;BME280;15815;46.760;19.604;2022-11-06T07:33:31;100529.28;;;11.99;100.00
28628;BME280;15815;46.760;19.604;2022-11-06T07:36:11;100548.91;;;12.20;100.00
28628;BME280;15815;46.760;19.604;2022-11-06T07:38:38;100549.66;;;12.28;100.00
28628;BME280;15815;46.760;19.604;2022-11-06T07:41:05;100552.88;;;12.30;100.00
28628;BME280;15815;46.760;19.604;2022-11-06T07:43:31;100535.22;;;12.19;100.00
28628;BME280;15815;46.760;19.604;2022-11-06T07:46:01;100542.88;;;12.18;100.00
28628;BME280;15815;46.760;19.604;2022-11-06T07:48:28;100558.91;;;12.32;100.00
28628;BME280;15815;46.760;19.604;2022-11-06T07:50:53;100543.19;;;12.38;100.00
28628;BME280;15815;46.760;19.604;2022-11-06T07:53:19;100553.19;;;12.46;100.00
28628;BME280;15815;46.760;19.604;2022-11-06T07:55:51;100551.25;;;12.36;100.00
28628;BME280;15815;46.760;19.604;2022-11-06T07:58:18;100549.25;;;12.36;100.00
28628;BME280;15815;46.760;19.604;2022-11-06T08:00:52;100554.81;;;12.47;100.00
28628;BME280;15815;46.760;19.604;2022-11-06T08:03:18;100554.34;;;12.56;100.00
28628;BME280;15815;46.760;19.604;2022-11-06T08:05:43;100551.91;;;12.61;100.00
28628;BME280;15815;46.760;19.604;2022-11-06T08:08:09;100559.56;;;12.57;100.00
28628;BME280;15815;46.760;19.604;2022-11-06T08:10:35;100546.28;;;12.54;100.00
28628;BME280;15815;46.760;19.604;2022-11-06T08:13:05;100549.56;;;12.49;100.00
28628;BME280;15815;46.760;19.604;2022-11-06T08:15:30;100549.47;;;12.63;100.00
28628;BME280;15815;46.760;19.604;2022-11-06T08:18:00;100549.91;;;12.62;100.00
28628;BME280;15815;46.760;19.604;2022-11-06T08:20:25;100539.88;;;12.50;100.00
28628;BME280;15815;46.760;19.604;2022-11-06T08:22:51;100534.56;;;12.59;100.00
28628;BME280;15815;46.760;19.604;2022-11-06T08:25:16;100526.94;;;12.56;100.00
28628;BME280;15815;46.760;19.604;2022-11-06T08:27:41;100555.09;;;12.67;100.00
28628;BME280;15815;46.760;19.604;2022-11-06T08:30:07;100545.84;;;12.59;100.00
28628;BME280;15815;46.760;19.604;2022-11-06T08:37:43;100555.00;;;12.78;100.00
28628;BME280;15815;46.760;19.604;2022-11-06T08:40:09;100548.59;;;12.74;99.93
28628;BME280;15815;46.760;19.604;2022-11-06T08:42:35;100552.63;;;12.73;99.74
28628;BME280;15815;46.760;19.604;2022-11-06T08:45:00;100547.84;;;12.66;99.28
28628;BME280;15815;46.760;19.604;2022-11-06T08:47:25;100544.50;;;12.82;100.00
28628;BME280;15815;46.760;19.604;2022-11-06T08:49:51;100542.13;;;12.77;99.97
28628;BME280;15815;46.760;19.604;2022-11-06T08:52:16;100546.09;;;12.83;98.11
28628;BME280;15815;46.760;19.604;2022-11-06T08:54:41;100548.16;;;12.79;99.25
28628;BME280;15815;46.760;19.604;2022-11-06T08:57:07;100551.31;;;12.88;98.42
28628;BME280;15815;46.760;19.604;2022-11-06T08:59:32;100551.72;;;12.86;98.57
28628;BME280;15815;46.760;19.604;2022-11-06T09:01:58;100552.13;;;12.88;97.58
28628;BME280;15815;46.760;19.604;2022-11-06T09:04:24;100561.31;;;12.99;99.15
28628;BME280;15815;46.760;19.604;2022-11-06T09:06:49;100555.69;;;12.96;97.06
28628;BME280;15815;46.760;19.604;2022-11-06T09:09:15;100550.03;;;12.96;98.60
28628;BME280;15815;46.760;19.604;2022-11-06T09:11:40;100552.38;;;13.05;99.14
28628;BME280;15815;46.760;19.604;2022-11-06T09:14:05;100563.22;;;13.10;97.60
28628;BME280;15815;46.760;19.604;2022-11-06T09:16:30;100555.94;;;13.19;98.45
28628;BME280;15815;46.760;19.604;2022-11-06T09:18:56;100551.91;;;13.17;97.88
28628;BME280;15815;46.760;19.604;2022-11-06T09:21:22;100549.06;;;13.17;97.09
28628;BME280;15815;46.760;19.604;2022-11-06T09:23:48;100558.69;;;13.26;97.10
28628;BME280;15815;46.760;19.604;2022-11-06T09:26:17;100569.66;;;13.17;94.06
28628;BME280;15815;46.760;19.604;2022-11-06T09:28:42;100565.09;;;13.30;94.35
28628;BME280;15815;46.760;19.604;2022-11-06T09:31:08;100544.22;;;13.21;95.75
28628;BME280;15815;46.760;19.604;2022-11-06T09:33:34;100562.00;;;13.18;92.17
28628;BME280;15815;46.760;19.604;2022-11-06T09:36:05;100574.78;;;13.29;93.88
28628;BME280;15815;46.760;19.604;2022-11-06T09:38:30;100565.16;;;13.23;92.24
28628;BME280;15815;46.760;19.604;2022-11-06T09:40:58;100564.16;;;13.44;92.54
28628;BME280;15815;46.760;19.604;2022-11-06T09:43:32;100578.94;;;13.59;89.78
28628;BME280;15815;46.760;19.604;2022-11-06T09:46:16;100568.94;;;13.51;89.11
28628;BME280;15815;46.760;19.604;2022-11-06T09:48:48;100574.00;;;13.70;89.33
28628;BME280;15815;46.760;19.604;2022-11-06T09:51:23;100571.47;;;13.79;88.14
28628;BME280;15815;46.760;19.604;2022-11-06T09:54:02;100577.41;;;13.88;88.07
28628;BME280;15815;46.760;19.604;2022-11-06T09:56:33;100555.56;;;13.92;87.14
28628;BME280;15815;46.760;19.604;2022-11-06T09:59:03;100567.94;;;14.36;86.61
28628;BME280;15815;46.760;19.604;2022-11-06T10:01:45;100555.78;;;14.39;85.32
28628;BME280;15815;46.760;19.604;2022-11-06T10:04:50;100558.91;;;14.75;86.16
28628;BME280;15815;46.760;19.604;2022-11-06T10:09:50;100550.69;;;15.11;83.33
28628;BME280;15815;46.760;19.604;2022-11-06T10:12:25;100546.13;;;15.18;80.95
28628;BME280;15815;46.760;19.604;2022-11-06T10:18:06;100546.19;;;15.81;77.40
28628;BME280;15815;46.760;19.604;2022-11-06T10:20:43;100552.28;;;15.59;78.90
28628;BME280;15815;46.760;19.604;2022-11-06T10:34:33;100550.38;;;15.96;76.46
28628;BME280;15815;46.760;19.604;2022-11-06T10:37:07;100553.69;;;16.11;77.10
28628;BME280;15815;46.760;19.604;2022-11-06T10:39:35;100554.72;;;16.00;74.35
28628;BME280;15815;46.760;19.604;2022-11-06T10:42:15;100558.78;;;15.99;75.16
28628;BME280;15815;46.760;19.604;2022-11-06T10:47:18;100542.25;;;16.14;76.25
28628;BME280;15815;46.760;19.604;2022-11-06T10:49:47;100551.59;;;15.95;76.48
28628;BME280;15815;46.760;19.604;2022-11-06T10:58:02;100517.72;;;16.80;70.55
28628;BME280;15815;46.760;19.604;2022-11-06T11:00:30;100508.88;;;17.55;71.54
28628;BME280;15815;46.760;19.604;2022-11-06T11:02:59;100502.13;;;18.07;71.00
28628;BME280;15815;46.760;19.604;2022-11-06T11:05:26;100507.75;;;18.23;67.77
28628;BME280;15815;46.760;19.604;2022-11-06T11:07:56;100496.28;;;18.52;68.02
28628;BME280;15815;46.760;19.604;2022-11-06T11:12:48;100510.50;;;19.51;68.27
28628;BME280;15815;46.760;19.604;2022-11-06T11:15:14;100505.72;;;19.48;65.43
28628;BME280;15815;46.760;19.604;2022-11-06T11:20:36;100509.09;;;19.90;67.16
28628;BME280;15815;46.760;19.604;2022-11-06T11:23:24;100504.47;;;20.05;60.62
28628;BME280;15815;46.760;19.604;2022-11-06T11:25:57;100490.44;;;19.98;63.16
28628;BME280;15815;46.760;19.604;2022-11-06T11:28:36;100501.28;;;20.03;62.08
28628;BME280;15815;46.760;19.604;2022-11-06T11:31:15;100502.34;;;20.49;60.61
28628;BME280;15815;46.760;19.604;2022-11-06T11:33:49;100490.72;;;20.75;61.80
28628;BME280;15815;46.760;19.604;2022-11-06T11:36:15;100503.81;;;20.94;61.55
28628;BME280;15815;46.760;19.604;2022-11-06T11:38:41;100493.09;;;19.92;61.47
28628;BME280;15815;46.760;19.604;2022-11-06T11:41:11;100500.81;;;20.04;62.10
28628;BME280;15815;46.760;19.604;2022-11-06T11:43:36;100482.59;;;19.45;63.00
28628;BME280;15815;46.760;19.604;2022-11-06T11:48:59;100497.88;;;18.79;60.55
28628;BME280;15815;46.760;19.604;2022-11-06T11:51:32;100481.84;;;18.72;61.74
28628;BME280;15815;46.760;19.604;2022-11-06T11:56:50;100492.31;;;18.75;61.13
28628;BME280;15815;46.760;19.604;2022-11-06T11:59:19;100487.41;;;18.38;63.54
28628;BME280;15815;46.760;19.604;2022-11-06T12:01:46;100484.81;;;18.02;63.34
28628;BME280;15815;46.760;19.604;2022-11-06T12:04:24;100485.41;;;17.68;64.62
28628;BME280;15815;46.760;19.604;2022-11-06T12:06:54;100491.09;;;17.51;64.76
28628;BME280;15815;46.760;19.604;2022-11-06T12:09:21;100484.94;;;17.24;64.53
28628;BME280;15815;46.760;19.604;2022-11-06T12:11:48;100477.94;;;17.28;65.36
28628;BME280;15815;46.760;19.604;2022-11-06T12:14:17;100492.91;;;17.45;65.22
28628;BME280;15815;46.760;19.604;2022-11-06T12:16:46;100487.66;;;17.44;64.41
28628;BME280;15815;46.760;19.604;2022-11-06T12:19:13;100497.19;;;17.37;65.31
28628;BME280;15815;46.760;19.604;2022-11-06T12:21:44;100492.97;;;17.13;66.66
28628;BME280;15815;46.760;19.604;2022-11-06T12:24:29;100490.88;;;16.64;66.54
28628;BME280;15815;46.760;19.604;2022-11-06T12:27:12;100492.63;;;16.78;66.46
28628;BME280;15815;46.760;19.604;2022-11-06T12:29:46;100473.06;;;16.64;67.20
28628;BME280;15815;46.760;19.604;2022-11-06T12:34:50;100489.34;;;16.80;67.23
28628;BME280;15815;46.760;19.604;2022-11-06T12:40:24;100485.94;;;17.17;66.54
28628;BME280;15815;46.760;19.604;2022-11-06T12:43:20;100487.81;;;16.91;65.87
28628;BME280;15815;46.760;19.604;2022-11-06T12:56:45;100498.03;;;16.00;68.06
28628;BME280;15815;46.760;19.604;2022-11-06T12:59:37;100500.34;;;16.05;68.46
28628;BME280;15815;46.760;19.604;2022-11-06T13:13:02;100506.44;;;16.04;68.13
28628;BME280;15815;46.760;19.604;2022-11-06T13:15:40;100510.72;;;16.12;68.17
28628;BME280;15815;46.760;19.604;2022-11-06T13:18:14;100502.50;;;16.18;68.48
28628;BME280;15815;46.760;19.604;2022-11-06T13:21:21;100498.44;;;16.19;66.73
28628;BME280;15815;46.760;19.604;2022-11-06T13:23:50;100509.69;;;16.22;67.31
28628;BME280;15815;46.760;19.604;2022-11-06T13:28:54;100518.50;;;16.28;68.56
28628;BME280;15815;46.760;19.604;2022-11-06T13:31:26;100516.63;;;16.01;70.53
28628;BME280;15815;46.760;19.604;2022-11-06T13:33:57;100500.84;;;16.00;71.23
28628;BME280;15815;46.760;19.604;2022-11-06T13:36:25;100514.94;;;16.04;71.61
28628;BME280;15815;46.760;19.604;2022-11-06T13:39:08;100522.44;;;15.94;71.44
28628;BME280;15815;46.760;19.604;2022-11-06T13:41:37;100512.13;;;15.84;72.65
28628;BME280;15815;46.760;19.604;2022-11-06T13:44:04;100519.19;;;15.96;72.20
28628;BME280;15815;46.760;19.604;2022-11-06T13:52:00;100516.34;;;15.76;72.88
28628;BME280;15815;46.760;19.604;2022-11-06T13:54:55;100531.50;;;15.86;72.92
28628;BME280;15815;46.760;19.604;2022-11-06T13:57:36;100525.84;;;15.86;73.19
28628;BME280;15815;46.760;19.604;2022-11-06T14:00:22;100524.75;;;15.80;73.64
28628;BME280;15815;46.760;19.604;2022-11-06T14:06:08;100523.81;;;15.66;73.00
28628;BME280;15815;46.760;19.604;2022-11-06T14:08:48;100519.25;;;15.49;73.44
28628;BME280;15815;46.760;19.604;2022-11-06T14:11:27;100514.53;;;15.42;73.13
28628;BME280;15815;46.760;19.604;2022-11-06T14:14:00;100510.28;;;15.31;73.49
28628;BME280;15815;46.760;19.604;2022-11-06T14:16:36;100520.28;;;15.15;73.80
28628;BME280;15815;46.760;19.604;2022-11-06T14:21:51;100518.97;;;15.20;73.47
28628;BME280;15815;46.760;19.604;2022-11-06T14:24:29;100497.50;;;14.99;73.97
28628;BME280;15815;46.760;19.604;2022-11-06T14:26:55;100507.22;;;14.98;74.28